Time;durP1;ratioP1;P1;durP2;ratioP2;P2;SDS_P1;SDS_P2;PMS_P1;PMS_P2;Temp;Humidity;BMP_temperature;BMP_pressure;BME280_temperature;BME280_humidity;BME280_pressure;Samples;Min_cycle;Max_cycle;Signal;HPM_P1;HPM_P2
2022/06/11 00:01:33;;;;;;;25.67;4.15;;;13.50;99.90;;;;;;5032192;28;20197;-57
2022/06/11 00:04:03;;;;;;;25.38;4.07;;;13.40;99.90;;;;;;5031813;28;20194;-57
2022/06/11 00:06:32;;;;;;;27.42;4.38;;;13.20;99.90;;;;;;5031732;28;20182;-58
2022/06/11 00:08:58;;;;;;;26.75;4.22;;;13.60;99.90;;;;;;5032231;28;20166;-57
2022/06/11 00:11:24;;;;;;;34.17;5.53;;;;;;;;;;5031604;28;20181;-57
2022/06/11 00:13:51;;;;;;;28.15;4.40;;;13.50;99.90;;;;;;5031354;28;20181;-58
2022/06/11 00:16:19;;;;;;;27.17;3.80;;;13.80;99.90;;;;;;5031869;28;20540;-57
2022/06/11 00:18:46;;;;;;;28.33;4.82;;;13.60;99.90;;;;;;5032059;28;20251;-57
2022/06/11 00:21:14;;;;;;;33.15;6.20;;;13.60;99.90;;;;;;5031152;28;20166;-58
2022/06/11 00:23:41;;;;;;;30.30;4.65;;;13.70;99.90;;;;;;5031547;28;20201;-57
2022/06/11 00:26:07;;;;;;;36.15;7.50;;;13.70;99.90;;;;;;5031846;28;20196;-58
2022/06/11 00:28:33;;;;;;;30.65;8.75;;;13.50;99.90;;;;;;5031777;28;20212;-58
2022/06/11 00:31:00;;;;;;;32.78;3.63;;;13.80;99.90;;;;;;5031826;28;20617;-58
2022/06/11 00:33:26;;;;;;;31.40;5.18;;;13.60;99.90;;;;;;5031609;28;20181;-58
2022/06/11 00:35:52;;;;;;;27.53;4.23;;;13.60;99.90;;;;;;5031070;28;20617;-58
2022/06/11 00:38:18;;;;;;;28.90;4.70;;;13.50;99.90;;;;;;5031369;28;20178;-57
2022/06/11 00:40:46;;;;;;;38.28;5.65;;;13.50;99.90;;;;;;5030508;28;20189;-58
2022/06/11 00:43:15;;;;;;;23.95;3.53;;;13.70;99.90;;;;;;5031543;28;20181;-58
2022/06/11 00:45:59;;;;;;;23.83;3.78;;;13.70;99.90;;;;;;5030916;28;20212;-58
2022/06/11 00:48:25;;;;;;;33.03;4.13;;;13.60;99.90;;;;;;5011785;28;20183;-58
2022/06/11 00:51:09;;;;;;;25.80;4.13;;;13.60;99.90;;;;;;5010830;28;20183;-58
2022/06/11 00:53:41;;;;;;;39.00;4.45;;;13.60;99.90;;;;;;5011234;28;20182;-58
2022/06/11 00:56:12;;;;;;;31.45;4.63;;;13.70;99.90;;;;;;5011413;28;20582;-58
2022/06/11 00:58:43;;;;;;;34.17;4.57;;;13.80;99.90;;;;;;5011606;28;20213;-58
2022/06/11 01:01:09;;;;;;;32.47;4.55;;;13.70;99.90;;;;;;5011101;28;20672;-58
2022/06/11 01:03:41;;;;;;;23.25;3.42;;;13.70;99.90;;;;;;5011276;28;20253;-57
2022/06/11 01:06:20;;;;;;;25.38;3.72;;;13.70;99.90;;;;;;5011147;28;20190;-59
2022/06/11 01:09:26;;;;;;;27.73;4.30;;;13.80;99.90;;;;;;5011282;28;20675;-55
2022/06/11 01:12:13;;;;;;;28.77;4.10;;;13.70;99.90;;;;;;5018505;28;20313;-55
2022/06/11 01:15:23;;;;;;;30.83;4.23;;;13.50;99.90;;;;;;5011353;28;20170;-55
2022/06/11 01:18:04;;;;;;;27.55;4.30;;;12.60;99.90;;;;;;4969826;28;20239;-55
2022/06/11 01:20:43;;;;;;;33.30;3.60;;;13.70;99.90;;;;;;4968041;28;20663;-55
2022/06/11 01:23:27;;;;;;;24.23;4.00;;;13.50;99.90;;;;;;4984821;28;20270;-56
2022/06/11 01:26:35;;;;;;;29.33;3.97;;;12.80;99.90;;;;;;4998420;28;20214;-55
2022/06/11 01:29:19;;;;;;;33.72;4.18;;;13.40;99.90;;;;;;5011157;28;20171;-55
2022/06/11 01:32:12;;;;;;;27.80;4.22;;;13.50;99.90;;;;;;5010655;28;20170;-55
2022/06/11 01:34:48;;;;;;;39.63;4.60;;;13.50;99.90;;;;;;5010486;28;20220;-55
2022/06/11 01:37:26;;;;;;;33.22;3.92;;;13.50;99.90;;;;;;5010451;28;20213;-55
2022/06/11 01:40:15;;;;;;;33.28;3.88;;;13.50;99.90;;;;;;5010766;28;20174;-55
2022/06/11 01:42:50;;;;;;;33.97;3.77;;;13.50;99.90;;;;;;5010099;28;20174;-55
2022/06/11 01:45:25;;;;;;;23.23;3.42;;;13.40;99.90;;;;;;5010745;28;20214;-55
2022/06/11 01:47:51;;;;;;;33.53;4.22;;;13.40;99.90;;;;;;5040378;28;20242;-55
2022/06/11 01:50:22;;;;;;;23.25;3.50;;;13.40;99.90;;;;;;5049906;28;20181;-55
2022/06/11 01:53:25;;;;;;;30.80;4.22;;;13.40;99.90;;;;;;5030889;28;20651;-55
2022/06/11 01:55:56;;;;;;;37.77;5.03;;;13.40;99.90;;;;;;5050442;28;20197;-55
2022/06/11 01:58:49;;;;;;;38.17;4.50;;;13.40;99.90;;;;;;5049854;28;20196;-55
2022/06/11 02:01:27;;;;;;;36.40;4.40;;;13.70;99.90;;;;;;5040382;28;20178;-55
2022/06/11 02:04:19;;;;;;;38.55;4.57;;;13.40;99.90;;;;;;5049650;28;20179;-55
2022/06/11 02:07:02;;;;;;;43.75;4.50;;;13.50;99.90;;;;;;5050132;28;20181;-55
2022/06/11 02:09:49;;;;;;;29.45;4.38;;;13.40;99.90;;;;;;5030428;28;20170;-55
2022/06/11 02:12:28;;;;;;;24.63;4.32;;;13.50;99.90;;;;;;5045191;28;20181;-55
2022/06/11 02:15:07;;;;;;;27.25;4.18;;;13.50;99.90;;;;;;5049852;28;20252;-55
2022/06/11 02:17:40;;;;;;;24.55;4.35;;;13.50;99.90;;;;;;5050186;28;20184;-55
2022/06/11 02:20:16;;;;;;;29.33;4.63;;;13.40;99.90;;;;;;5038164;28;20161;-55
2022/06/11 02:23:05;;;;;;;31.95;4.13;;;13.30;99.90;;;;;;5050310;28;20223;-55
2022/06/11 02:25:42;;;;;;;26.40;4.55;;;13.20;99.90;;;;;;5038548;28;20217;-55
2022/06/11 02:28:12;;;;;;;31.20;4.18;;;13.20;99.90;;;;;;5036413;28;20169;-55
2022/06/11 02:30:42;;;;;;;20.57;3.87;;;13.20;99.90;;;;;;5050323;28;20184;-55
2022/06/11 02:33:09;;;;;;;23.60;3.40;;;13.20;99.90;;;;;;5031767;28;20624;-55
2022/06/11 02:35:50;;;;;;;26.37;3.70;;;13.00;99.90;;;;;;5049887;28;20173;-55
2022/06/11 02:38:20;;;;;;;25.83;3.75;;;13.20;99.90;;;;;;5029754;28;20209;-55
2022/06/11 02:40:57;;;;;;;22.00;3.70;;;13.20;99.90;;;;;;5037041;28;20292;-55
2022/06/11 02:43:23;;;;;;;33.58;4.57;;;13.20;99.90;;;;;;5049763;28;20169;-55
2022/06/11 02:45:49;;;;;;;30.63;4.47;;;13.10;99.90;;;;;;5053394;28;20208;-55
2022/06/11 02:48:15;;;;;;;38.80;4.77;;;13.10;99.90;;;;;;5053344;28;20684;-55
2022/06/11 02:50:42;;;;;;;29.93;4.23;;;13.10;99.90;;;;;;5053343;28;20252;-55
2022/06/11 02:53:08;;;;;;;34.57;5.20;;;13.10;99.90;;;;;;5053481;28;20173;-55
2022/06/11 02:55:36;;;;;;;29.07;4.93;;;13.10;99.90;;;;;;5053572;28;20663;-55
2022/06/11 02:58:02;;;;;;;28.92;3.53;;;12.70;99.90;;;;;;5052912;28;20184;-55
2022/06/11 03:00:32;;;;;;;38.65;4.68;;;13.00;99.90;;;;;;5053353;28;20177;-55
2022/06/11 03:02:58;;;;;;;34.97;4.87;;;13.00;99.90;;;;;;5052723;28;20201;-55
2022/06/11 03:05:31;;;;;;;28.10;3.90;;;12.90;99.90;;;;;;5066736;28;20255;-55
2022/06/11 03:07:58;;;;;;;29.55;4.13;;;13.00;99.90;;;;;;5055284;28;20588;-55
2022/06/11 03:10:25;;;;;;;34.50;3.97;;;12.80;99.90;;;;;;5073194;28;20188;-55
2022/06/11 03:12:51;;;;;;;24.57;3.73;;;13.80;99.90;;;;;;5066970;28;20256;-55
2022/06/11 03:15:18;;;;;;;37.70;4.97;;;13.00;99.90;;;;;;5052988;28;20183;-55
2022/06/11 03:17:46;;;;;;;36.33;4.87;;;13.00;99.90;;;;;;5052806;28;20179;-55
2022/06/11 03:20:14;;;;;;;27.23;4.53;;;12.90;99.90;;;;;;5053091;28;20177;-54
2022/06/11 03:22:40;;;;;;;22.23;3.83;;;12.80;99.90;;;;;;5052749;28;20192;-55
2022/06/11 03:25:08;;;;;;;35.33;4.85;;;13.00;99.90;;;;;;5052232;28;20213;-56
2022/06/11 03:27:34;;;;;;;30.37;4.10;;;13.00;99.90;;;;;;5051920;28;20666;-56
2022/06/11 03:30:00;;;;;;;30.13;4.43;;;13.10;99.90;;;;;;5052059;28;20176;-55
2022/06/11 03:32:26;;;;;;;32.88;4.22;;;13.00;99.90;;;;;;5052185;28;20170;-56
2022/06/11 03:34:52;;;;;;;33.70;4.63;;;13.20;99.90;;;;;;5052005;28;20178;-56
2022/06/11 03:37:18;;;;;;;35.70;4.30;;;13.00;99.90;;;;;;5052574;28;20182;-56
2022/06/11 03:39:44;;;;;;;34.72;4.30;;;13.00;99.90;;;;;;5052588;28;20264;-55
2022/06/11 03:42:11;;;;;;;25.73;3.60;;;13.00;99.90;;;;;;5051764;28;20742;-56
2022/06/11 03:44:36;;;;;;;24.00;4.00;;;13.10;99.90;;;;;;5052419;28;20234;-55
2022/06/11 03:47:03;;;;;;;27.13;3.73;;;13.30;99.90;;;;;;5051872;28;20232;-55
2022/06/11 03:49:29;;;;;;;28.07;3.97;;;13.30;99.90;;;;;;5051690;28;20703;-55
2022/06/11 03:51:54;;;;;;;28.08;3.83;;;13.20;99.90;;;;;;5052158;28;20667;-55
2022/06/11 03:54:21;;;;;;;25.75;4.18;;;13.30;99.90;;;;;;5052081;28;20652;-55
2022/06/11 03:56:48;;;;;;;34.33;4.22;;;13.30;99.90;;;;;;5052347;28;20170;-55
2022/06/11 03:59:15;;;;;;;25.37;4.10;;;13.30;99.90;;;;;;5051711;28;20196;-55
2022/06/11 04:01:42;;;;;;;28.10;3.87;;;13.30;99.90;;;;;;5051934;28;20226;-55
2022/06/11 04:04:11;;;;;;;34.80;4.37;;;13.30;99.90;;;;;;5051120;28;20208;-60
2022/06/11 04:06:44;;;;;;;21.70;3.45;;;13.40;99.90;;;;;;5052352;28;20291;-60
2022/06/11 04:09:15;;;;;;;29.00;3.83;;;13.40;99.90;;;;;;5052144;28;20199;-56
2022/06/11 04:11:41;;;;;;;33.47;4.00;;;13.10;99.90;;;;;;5051700;28;20368;-56
2022/06/11 04:14:06;;;;;;;38.80;4.55;;;13.30;99.90;;;;;;5065714;28;20295;-55
2022/06/11 04:16:40;;;;;;;29.02;4.47;;;13.30;99.90;;;;;;5071761;28;20180;-55
2022/06/11 04:19:08;;;;;;;25.65;3.10;;;13.20;99.90;;;;;;5071986;28;20194;-56
2022/06/11 04:21:36;;;;;;;29.27;4.07;;;13.30;99.90;;;;;;5071920;28;20214;-55
2022/06/11 04:24:03;;;;;;;27.02;4.05;;;13.30;99.90;;;;;;5067729;28;20173;-55
2022/06/11 04:26:38;;;;;;;29.13;4.35;;;13.40;99.90;;;;;;5051410;28;20241;-56
2022/06/11 04:29:06;;;;;;;22.90;3.47;;;13.40;99.90;;;;;;5051565;28;20659;-56
2022/06/11 04:31:33;;;;;;;29.13;4.33;;;13.40;99.90;;;;;;5051647;28;20657;-56
2022/06/11 04:33:59;;;;;;;17.92;3.22;;;13.40;99.90;;;;;;5051165;28;20173;-56
2022/06/11 04:36:28;;;;;;;24.05;3.53;;;13.40;99.90;;;;;;5051297;28;20694;-56
2022/06/11 04:38:54;;;;;;;23.60;3.97;;;12.70;99.90;;;;;;5051205;28;20173;-55
2022/06/11 04:41:21;;;;;;;30.00;3.75;;;13.50;99.90;;;;;;5051544;28;20173;-55
2022/06/11 04:43:47;;;;;;;28.13;4.05;;;13.60;99.90;;;;;;5050102;28;20200;-55
2022/06/11 04:46:13;;;;;;;26.30;4.22;;;13.60;99.90;;;;;;5051187;28;20640;-55
2022/06/11 04:48:40;;;;;;;19.10;3.65;;;13.60;99.90;;;;;;5051347;28;20231;-55
2022/06/11 04:51:07;;;;;;;27.85;3.63;;;13.60;99.90;;;;;;5050609;28;20196;-56
2022/06/11 04:53:33;;;;;;;29.25;4.07;;;13.60;99.90;;;;;;5051184;28;20573;-55
2022/06/11 04:55:59;;;;;;;28.48;3.40;;;;;;;;;;5051242;28;20235;-55
2022/06/11 04:58:24;;;;;;;28.27;4.30;;;13.70;99.90;;;;;;5050897;28;20839;-55
2022/06/11 05:00:50;;;;;;;21.50;3.33;;;13.70;99.90;;;;;;5051179;28;20173;-55
2022/06/11 05:03:16;;;;;;;28.10;3.78;;;13.80;99.90;;;;;;5050729;28;20171;-56
2022/06/11 05:05:42;;;;;;;18.55;3.45;;;13.70;99.90;;;;;;5033080;28;20674;-56
2022/06/11 05:08:10;;;;;;;28.60;3.78;;;13.80;99.90;;;;;;5050467;28;20249;-56
2022/06/11 05:10:36;;;;;;;23.52;3.33;;;13.70;99.90;;;;;;5033117;28;20206;-56
2022/06/11 05:13:04;;;;;;;18.40;3.60;;;13.80;99.90;;;;;;5050607;28;20562;-56
2022/06/11 05:15:30;;;;;;;19.58;3.28;;;13.80;99.90;;;;;;5033167;28;20632;-56
2022/06/11 05:17:56;;;;;;;23.48;3.65;;;14.10;99.90;;;;;;5050533;28;20173;-56
2022/06/11 05:20:22;;;;;;;26.00;3.55;;;13.90;99.90;;;;;;5068481;28;20199;-56
2022/06/11 05:22:48;;;;;;;24.23;3.83;;;14.00;99.90;;;;;;5070757;28;20530;-56
2022/06/11 05:25:17;;;;;;;26.55;3.40;;;14.00;99.90;;;;;;5063236;28;20205;-56
2022/06/11 05:27:43;;;;;;;25.38;3.28;;;14.00;99.90;;;;;;5050598;28;20252;-56
2022/06/11 05:30:24;;;;;;;18.77;3.30;;;14.00;99.90;;;;;;5050713;28;20170;-56
2022/06/11 05:32:50;;;;;;;26.20;3.60;;;14.10;99.90;;;;;;5050373;28;20268;-56
2022/06/11 05:35:19;;;;;;;29.13;4.05;;;14.10;99.90;;;;;;5050655;28;20196;-56
2022/06/11 05:37:46;;;;;;;25.30;3.38;;;14.10;99.90;;;;;;5050492;28;20173;-56
2022/06/11 05:40:15;;;;;;;21.23;3.63;;;14.10;99.90;;;;;;5050826;28;20181;-56
2022/06/11 05:42:41;;;;;;;32.65;4.13;;;14.10;99.90;;;;;;5050212;28;20208;-56
2022/06/11 05:45:08;;;;;;;27.90;3.92;;;14.10;99.90;;;;;;5050303;28;20215;-56
2022/06/11 05:47:34;;;;;;;31.60;3.78;;;13.90;99.90;;;;;;5050241;28;20335;-55
2022/06/11 05:50:02;;;;;;;22.45;3.67;;;14.10;99.90;;;;;;5050819;28;20181;-60
2022/06/11 05:52:34;;;;;;;31.23;4.75;;;14.10;99.90;;;;;;5050363;28;20658;-55
2022/06/11 05:55:00;;;;;;;23.73;3.47;;;14.10;99.90;;;;;;5050679;28;20694;-55
2022/06/11 05:57:27;;;;;;;27.48;3.58;;;14.10;99.90;;;;;;5050127;28;20299;-56
2022/06/11 05:59:57;;;;;;;35.35;4.97;;;14.20;99.90;;;;;;5050061;28;20644;-55
2022/06/11 06:02:26;;;;;;;30.52;3.53;;;14.10;99.90;;;;;;5050218;28;20200;-55
2022/06/11 06:04:51;;;;;;;25.75;4.20;;;14.30;99.90;;;;;;5050245;28;20208;-56
2022/06/11 06:07:17;;;;;;;26.45;3.63;;;14.40;99.90;;;;;;5050357;28;20177;-55
2022/06/11 06:09:42;;;;;;;29.30;4.00;;;14.50;99.90;;;;;;5050504;28;20174;-53
2022/06/11 06:12:09;;;;;;;23.30;2.97;;;14.30;99.90;;;;;;5050387;28;20532;-56
2022/06/11 06:14:35;;;;;;;29.02;3.50;;;14.60;99.90;;;;;;5050234;28;20181;-56
2022/06/11 06:17:00;;;;;;;23.70;3.88;;;14.70;99.90;;;;;;5050248;28;20539;-53
2022/06/11 06:19:26;;;;;;;24.95;4.00;;;15.00;99.90;;;;;;5051819;28;20169;-53
2022/06/11 06:21:52;;;;;;;22.30;3.30;;;15.00;99.90;;;;;;5058455;28;20181;-54
2022/06/11 06:24:17;;;;;;;25.15;3.88;;;15.20;99.90;;;;;;5073997;28;20666;-54
2022/06/11 06:26:43;;;;;;;25.63;3.92;;;15.00;99.90;;;;;;5074145;28;20177;-57
2022/06/11 06:29:09;;;;;;;23.95;3.25;;;;;;;;;;5065250;28;20204;-57
2022/06/11 06:31:35;;;;;;;24.90;3.90;;;15.10;99.90;;;;;;5053607;28;20177;-57
2022/06/11 06:34:01;;;;;;;28.17;3.83;;;15.00;99.90;;;;;;5043945;28;20192;-57
2022/06/11 06:36:28;;;;;;;31.55;3.70;;;15.10;99.90;;;;;;5049523;28;20248;-57
2022/06/11 06:38:54;;;;;;;31.45;3.78;;;15.10;99.90;;;;;;5052933;28;20189;-57
2022/06/11 06:41:21;;;;;;;16.70;3.38;;;15.10;99.90;;;;;;5052834;28;20264;-57
2022/06/11 06:43:48;;;;;;;32.58;4.30;;;15.20;99.90;;;;;;5053633;28;20187;-58
2022/06/11 06:46:14;;;;;;;23.48;3.70;;;15.20;99.90;;;;;;5053012;28;20370;-57
2022/06/11 06:48:40;;;;;;;30.05;3.90;;;15.40;99.90;;;;;;5053508;28;20191;-58
2022/06/11 06:51:06;;;;;;;25.90;3.63;;;15.40;99.90;;;;;;5052051;28;20645;-57
2022/06/11 06:53:32;;;;;;;25.90;4.20;;;15.50;99.90;;;;;;5061337;28;20177;-60
2022/06/11 06:55:58;;;;;;;22.50;3.78;;;15.50;99.90;;;;;;5057967;28;20196;-60
2022/06/11 06:58:24;;;;;;;25.42;4.15;;;15.60;99.90;;;;;;5058969;28;20624;-60
2022/06/11 07:00:50;;;;;;;24.13;3.78;;;15.70;99.90;;;;;;5073356;28;20168;-61
2022/06/11 07:03:16;;;;;;;30.52;3.53;;;15.70;99.90;;;;;;5069141;28;20207;-60
2022/06/11 07:05:43;;;;;;;34.15;4.57;;;15.70;99.90;;;;;;5061980;28;20208;-60
2022/06/11 07:08:08;;;;;;;31.33;4.80;;;15.70;99.90;;;;;;5073132;28;20631;-60
2022/06/11 07:10:34;;;;;;;25.58;3.72;;;15.90;99.90;;;;;;5057723;28;20255;-59
2022/06/11 07:13:01;;;;;;;21.67;3.67;;;15.90;99.90;;;;;;5053016;28;20227;-59
2022/06/11 07:15:28;;;;;;;20.40;3.28;;;18.20;99.90;;;;;;5065632;28;20214;-59
2022/06/11 07:18:09;;;;;;;22.98;3.53;;;15.90;99.90;;;;;;5073054;28;20250;-59
2022/06/11 07:20:36;;;;;;;21.40;3.25;;;15.80;99.90;;;;;;5072871;28;20172;-59
2022/06/11 07:23:10;;;;;;;22.77;3.78;;;15.70;99.90;;;;;;5058919;28;20177;-59
2022/06/11 07:25:39;;;;;;;26.77;3.55;;;15.70;99.90;;;;;;5035078;28;20212;-59
2022/06/11 07:28:09;;;;;;;18.90;3.30;;;15.70;99.90;;;;;;5065716;28;20174;-58
2022/06/11 07:30:39;;;;;;;24.13;3.58;;;15.70;99.90;;;;;;5059178;28;20229;-58
2022/06/11 07:33:10;;;;;;;20.80;3.20;;;15.70;99.90;;;;;;5072784;28;20181;-58
2022/06/11 07:35:36;;;;;;;19.00;3.50;;;15.80;99.90;;;;;;5072747;28;20274;-58
2022/06/11 07:38:08;;;;;;;16.08;2.85;;;15.80;99.90;;;;;;5072742;28;20242;-64
2022/06/11 07:40:34;;;;;;;15.02;2.35;;;15.80;99.90;;;;;;5072465;28;20173;-58
2022/06/11 07:43:00;;;;;;;20.75;2.95;;;15.70;99.90;;;;;;5055347;28;20273;-59
2022/06/11 07:45:26;;;;;;;26.98;3.15;;;15.80;99.90;;;;;;5052144;28;20236;-59
2022/06/11 07:47:55;;;;;;;19.40;2.60;;;15.90;99.90;;;;;;5046914;28;20571;-59
2022/06/11 07:50:44;;;;;;;22.52;3.85;;;16.30;99.90;;;;;;5072369;28;20165;-59
2022/06/11 07:53:10;;;;;;;16.77;3.00;;;16.30;99.90;;;;;;5057279;28;20169;-58
2022/06/11 07:55:38;;;;;;;15.80;2.38;;;16.20;99.90;;;;;;5060447;28;20176;-59
2022/06/11 07:58:06;;;;;;;25.25;3.35;;;16.50;99.90;;;;;;5070823;28;20314;-59
2022/06/11 08:00:36;;;;;;;18.27;2.97;;;16.70;99.90;;;;;;5072303;28;20176;-59
2022/06/11 08:03:03;;;;;;;19.83;2.72;;;17.00;99.90;;;;;;5072241;28;20250;-58
2022/06/11 08:05:29;;;;;;;17.70;3.58;;;17.20;99.90;;;;;;5072229;28;20294;-59
2022/06/11 08:07:55;;;;;;;19.60;2.78;;;17.10;99.90;;;;;;5071952;28;20631;-57
2022/06/11 08:10:24;;;;;;;18.42;3.20;;;17.00;99.90;;;;;;5059724;28;20185;-57
2022/06/11 08:12:50;;;;;;;22.90;3.25;;;17.00;99.90;;;;;;5051145;28;20180;-58
2022/06/11 08:15:16;;;;;;;16.20;2.28;;;17.20;99.90;;;;;;5051387;28;20184;-58
2022/06/11 08:17:41;;;;;;;16.48;2.97;;;17.40;99.90;;;;;;5051582;28;20170;-58
2022/06/11 08:20:11;;;;;;;18.88;3.03;;;17.40;99.90;;;;;;5051438;28;20252;-58
2022/06/11 08:22:37;;;;;;;18.80;3.25;;;17.50;99.90;;;;;;5052015;28;20193;-58
2022/06/11 08:25:03;;;;;;;18.65;2.88;;;17.40;99.90;;;;;;5050912;28;20232;-58
2022/06/11 08:27:29;;;;;;;15.05;3.03;;;17.40;99.90;;;;;;5051766;28;20173;-58
2022/06/11 08:29:54;;;;;;;26.23;3.85;;;17.30;99.90;;;;;;5051435;28;20173;-59
2022/06/11 08:32:20;;;;;;;17.13;3.15;;;17.20;99.90;;;;;;5051407;28;20169;-58
2022/06/11 08:34:46;;;;;;;21.70;3.65;;;17.30;99.90;;;;;;5049957;28;20200;-58
2022/06/11 08:37:14;;;;;;;23.83;3.70;;;17.50;99.90;;;;;;5050193;28;20197;-61
2022/06/11 08:39:40;;;;;;;16.50;3.45;;;17.50;99.90;;;;;;5050153;28;20208;-57
2022/06/11 08:42:19;;;;;;;15.70;2.60;;;17.70;99.90;;;;;;5050067;28;20187;-57
2022/06/11 08:44:44;;;;;;;17.33;2.58;;;17.80;99.90;;;;;;5050365;28;20305;-65
2022/06/11 08:47:13;;;;;;;14.10;2.85;;;18.30;99.90;;;;;;5050010;28;20216;-63
2022/06/11 08:49:46;;;;;;;20.13;3.25;;;18.20;99.90;;;;;;5050184;28;20177;-62
2022/06/11 08:52:23;;;;;;;15.38;2.63;;;18.30;99.90;;;;;;5050638;28;20189;-64
2022/06/11 08:54:50;;;;;;;21.67;3.00;;;18.00;99.90;;;;;;5051142;28;20260;-62
2022/06/11 08:57:43;;;;;;;13.23;2.30;;;17.50;99.90;;;;;;5050984;28;20189;-63
2022/06/11 09:00:17;;;;;;;23.60;3.35;;;17.70;99.90;;;;;;5030966;28;20178;-64
2022/06/11 09:02:45;;;;;;;18.17;3.33;;;17.50;99.90;;;;;;5030782;28;20166;-65
2022/06/11 09:05:11;;;;;;;18.33;3.25;;;17.50;99.90;;;;;;5031119;28;20202;-65
2022/06/11 09:07:50;;;;;;;19.45;3.00;;;17.60;99.90;;;;;;5030466;28;20177;-64
2022/06/11 09:10:35;;;;;;;17.73;3.20;;;18.30;99.90;;;;;;5048859;28;20177;-65
2022/06/11 09:13:07;;;;;;;15.55;2.55;;;18.40;99.90;;;;;;5050372;28;20173;-64
2022/06/11 09:15:54;;;;;;;17.88;2.90;;;18.80;99.90;;;;;;5049240;28;20644;-64
2022/06/11 09:19:20;;;;;;;14.55;3.00;;;19.10;99.90;;;;;;5050357;28;20209;-63
2022/06/11 09:22:15;;;;;;;20.17;3.15;;;19.20;99.90;;;;;;4988585;28;20201;-63
2022/06/11 09:25:02;;;;;;;17.77;3.30;;;19.40;99.90;;;;;;4918755;28;20490;-65
2022/06/11 09:27:40;;;;;;;23.73;2.85;;;19.30;99.90;;;;;;5029714;28;20177;-65
2022/06/11 09:30:25;;;;;;;18.58;3.05;;;19.30;99.90;;;;;;5050240;28;20201;-64
2022/06/11 09:33:19;;;;;;;11.32;2.40;;;19.50;99.90;;;;;;5050891;28;20235;-64
2022/06/11 09:36:02;;;;;;;21.65;2.90;;;19.50;99.90;;;;;;5035049;28;20181;-65
2022/06/11 09:38:46;;;;;;;20.23;3.55;;;20.30;99.90;;;;;;5050670;28;20604;-65
2022/06/11 09:41:31;;;;;;;17.02;2.92;;;20.00;99.90;;;;;;5048711;28;20173;-64
2022/06/11 09:43:59;;;;;;;16.33;2.95;;;19.60;99.90;;;;;;5048624;28;20643;-64
2022/06/11 09:46:47;;;;;;;20.10;3.60;;;19.30;99.90;;;;;;5048485;28;20706;-64
2022/06/11 09:49:40;;;;;;;17.63;3.00;;;19.10;99.90;;;;;;5048572;28;20177;-63
2022/06/11 09:52:20;;;;;;;16.30;3.05;;;19.10;99.90;;;;;;5030800;28;20177;-65
2022/06/11 09:55:10;;;;;;;15.25;3.10;;;19.50;99.90;;;;;;5053882;28;20416;-64
2022/06/11 09:57:54;;;;;;;16.95;3.20;;;19.50;99.90;;;;;;5054655;28;20621;-64
2022/06/11 10:00:26;;;;;;;18.73;3.17;;;20.30;99.90;;;;;;5054666;28;20230;-65
2022/06/11 10:03:39;;;;;;;19.25;3.20;;;20.10;99.90;;;;;;5052387;28;20176;-65
2022/06/11 10:06:10;;;;;;;11.90;2.55;;;20.40;99.90;;;;;;5043452;28;20253;-66
2022/06/11 10:08:57;;;;;;;22.55;3.25;;;20.20;99.90;;;;;;5054191;28;20169;-65
2022/06/11 10:11:35;;;;;;;18.02;3.25;;;20.40;99.90;;;;;;5034404;28;20174;-64
2022/06/11 10:14:29;;;;;;;14.73;3.03;;;20.60;99.90;;;;;;5033266;28;20181;-65
2022/06/11 10:17:03;;;;;;;13.85;2.67;;;21.00;99.90;;;;;;5034502;28;20378;-65
2022/06/11 10:19:44;;;;;;;12.85;2.78;;;20.90;99.90;;;;;;5054297;28;20173;-65
2022/06/11 10:22:16;;;;;;;15.13;3.15;;;20.90;99.90;;;;;;5053910;28;20169;-65
2022/06/11 10:25:04;;;;;;;24.88;3.30;;;20.90;99.90;;;;;;5054090;28;20201;-65
2022/06/11 10:27:35;;;;;;;20.70;3.13;;;20.50;99.90;;;;;;5054154;28;20177;-65
2022/06/11 10:30:25;;;;;;;18.42;4.50;;;20.20;99.90;;;;;;5054018;28;20180;-66
2022/06/11 10:32:53;;;;;;;19.95;3.40;;;20.30;99.90;;;;;;5054079;28;20166;-65
2022/06/11 10:35:28;;;;;;;11.90;2.70;;;20.50;99.90;;;;;;5053934;28;20169;-65
2022/06/11 10:38:31;;;;;;;23.35;3.97;;;20.40;99.90;;;;;;5054399;28;20180;-65
2022/06/11 10:40:59;;;;;;;17.92;3.83;;;20.00;99.90;;;;;;5053770;28;20227;-65
2022/06/11 10:43:33;;;;;;;18.50;3.47;;;20.00;99.90;;;;;;5054158;28;20177;-63
2022/06/11 10:46:00;;;;;;;20.90;3.45;;;20.30;99.90;;;;;;5053779;28;20232;-64
2022/06/11 10:48:32;;;;;;;21.67;3.90;;;20.30;99.90;;;;;;5053490;28;20224;-64
2022/06/11 10:51:00;;;;;;;20.33;3.47;;;20.50;99.90;;;;;;5053646;28;20165;-65
2022/06/11 10:53:36;;;;;;;22.52;4.38;;;20.90;99.90;;;;;;5053609;28;20231;-64
2022/06/11 10:56:15;;;;;;;24.02;4.43;;;20.60;99.90;;;;;;5053635;28;20157;-65
2022/06/11 10:58:57;;;;;;;25.35;4.25;;;20.70;99.90;;;;;;5053592;28;20168;-64
2022/06/11 11:01:28;;;;;;;19.92;4.28;;;20.20;99.90;;;;;;5053512;28;20528;-65
2022/06/11 11:04:05;;;;;;;25.77;4.40;;;20.20;99.90;;;;;;5053260;28;20178;-64
2022/06/11 11:06:34;;;;;;;20.83;4.53;;;20.40;99.90;;;;;;5053125;28;20192;-65
2022/06/11 11:09:06;;;;;;;26.55;4.53;;;21.10;99.90;;;;;;5053491;28;20176;-65
2022/06/11 11:11:44;;;;;;;26.73;4.55;;;21.80;99.90;;;;;;5053194;28;20727;-66
2022/06/11 11:14:18;;;;;;;19.30;4.07;;;21.20;99.90;;;;;;5053381;28;20231;-65
2022/06/11 11:16:48;;;;;;;21.52;4.03;;;20.60;99.90;;;;;;5053398;28;20196;-64
2022/06/11 11:19:22;;;;;;;19.27;4.20;;;20.50;99.90;;;;;;5053381;28;20173;-64
2022/06/11 11:21:57;;;;;;;25.67;5.05;;;20.60;99.90;;;;;;5053151;28;20189;-65
2022/06/11 11:24:29;;;;;;;19.83;3.80;;;20.50;99.90;;;;;;5053214;28;20196;-65
2022/06/11 11:27:18;;;;;;;22.13;3.47;;;20.40;99.90;;;;;;5053061;28;20184;-65
2022/06/11 11:30:00;;;;;;;20.60;4.05;;;20.70;99.90;;;;;;5053046;28;20663;-65
2022/06/11 11:32:34;;;;;;;21.52;4.30;;;21.00;99.90;;;;;;5052847;28;20661;-65
2022/06/11 11:35:24;;;;;;;14.73;3.30;;;21.30;99.90;;;;;;5052694;28;20165;-64
2022/06/11 11:38:16;;;;;;;15.07;3.90;;;21.40;99.90;;;;;;5052751;28;20177;-65
2022/06/11 11:41:01;;;;;;;20.13;4.35;;;21.90;99.90;;;;;;5052796;28;20168;-65
2022/06/11 11:43:46;;;;;;;19.08;4.00;;;22.20;99.90;;;;;;5052730;28;20181;-65
2022/06/11 11:46:19;;;;;;;14.10;3.22;;;22.10;99.90;;;;;;5034286;28;20618;-64
2022/06/11 11:48:58;;;;;;;18.63;3.92;;;21.50;99.90;;;;;;5052577;28;20609;-65
2022/06/11 11:51:27;;;;;;;16.10;3.58;;;21.80;99.90;;;;;;5052707;28;20177;-64
2022/06/11 11:53:59;;;;;;;15.65;3.10;;;22.10;99.90;;;;;;5052987;28;20195;-64
2022/06/11 11:56:36;;;;;;;15.25;3.50;;;22.60;99.90;;;;;;5052336;28;20177;-64
2022/06/11 11:59:09;;;;;;;18.90;3.40;;;22.40;99.90;;;;;;5052483;28;20223;-64
2022/06/11 12:01:35;;;;;;;10.48;3.15;;;23.10;99.90;;;;;;5052270;28;20640;-64
2022/06/11 12:04:36;;;;;;;17.08;3.17;;;23.10;99.90;;;;;;5052355;28;20169;-64
2022/06/11 12:07:06;;;;;;;14.70;2.70;;;23.00;99.90;;;;;;5051645;28;20203;-65
2022/06/11 12:09:48;;;;;;;12.52;2.97;;;23.50;99.90;;;;;;5052267;28;20165;-64
2022/06/11 12:12:29;;;;;;;17.20;3.55;;;22.70;99.90;;;;;;5051950;28;20170;-64
2022/06/11 12:15:02;;;;;;;11.65;3.25;;;22.90;99.90;;;;;;5052133;28;20177;-65
2022/06/11 12:17:45;;;;;;;12.65;3.00;;;22.80;99.90;;;;;;5051894;28;20176;-65
2022/06/11 12:20:34;;;;;;;17.73;3.50;;;23.50;99.90;;;;;;5052137;28;20177;-64
2022/06/11 12:23:37;;;;;;;14.45;2.88;;;23.70;99.90;;;;;;5052033;28;20537;-65
2022/06/11 12:26:05;;;;;;;17.58;3.05;;;23.70;99.90;;;;;;5048708;28;20220;-65
2022/06/11 12:28:49;;;;;;;15.77;3.40;;;23.50;99.90;;;;;;5052053;28;20703;-65
2022/06/11 12:31:16;;;;;;;12.15;3.33;;;23.90;99.90;;;;;;5051821;28;20246;-64
2022/06/11 12:33:44;;;;;;;14.70;3.25;;;24.00;99.90;;;;;;5051747;28;20268;-64
2022/06/11 12:36:14;;;;;;;14.35;3.10;;;23.70;99.90;;;;;;5051533;28;20666;-64
2022/06/11 12:38:51;;;;;;;15.43;2.67;;;23.90;99.90;;;;;;5051808;28;20227;-64
2022/06/11 12:41:37;;;;;;;13.38;3.05;;;24.20;99.90;;;;;;5051845;28;20222;-64
2022/06/11 12:44:15;;;;;;;10.68;2.78;;;24.60;99.90;;;;;;5051043;28;20181;-64
2022/06/11 12:46:46;;;;;;;9.25;3.13;;;24.50;99.90;;;;;;5034911;28;20747;-65
2022/06/11 12:49:41;;;;;;;9.63;2.50;;;24.20;99.90;;;;;;5031556;28;20586;-65
2022/06/11 12:52:20;;;;;;;8.85;2.40;;;24.00;99.90;;;;;;5031593;28;20162;-65
2022/06/11 12:55:24;;;;;;;12.77;2.60;;;23.90;99.90;;;;;;5031481;28;20264;-65
2022/06/11 12:58:00;;;;;;;10.07;2.53;;;24.00;99.90;;;;;;5031361;28;20224;-64
2022/06/11 13:00:58;;;;;;;12.20;2.50;;;23.90;99.90;;;;;;5031340;28;20182;-63
2022/06/11 13:03:51;;;;;;;17.08;2.70;;;24.10;99.90;;;;;;5022151;28;20186;-63
2022/06/11 13:06:51;;;;;;;10.02;2.63;;;24.00;99.90;;;;;;5031256;28;20217;-63
2022/06/11 13:09:43;;;;;;;12.07;2.70;;;23.90;99.90;;;;;;5031188;28;20170;-63